WetterOnline ( https://www.wetteronline.de )

Wetter aktuell Greifswalder Bodden

Aktuelles Wetter: Greifswalder Oie (12m)

6-stündlich | Neueste Meldungen
Ortszeit Temperatur Wetter
Mi, 19.06. 20:00 21.1° C leicht bewölkt
Mi, 19.06. 14:00 22.8° C leicht bewölkt
Mi, 19.06. 8:00 20.8° C leicht bewölkt
Mi, 19.06. 2:00 20.7° C leicht bewölkt
Di, 18.06. 20:00 20.8° C leicht bewölkt
Di, 18.06. 14:00 22.8° C fast wolkenlos
Di, 18.06. 8:00 19.3° C wolkenlos
Di, 18.06. 2:00 17.7° C wolkenlos
Ortszeit Temperatur Wetter
Mi, 19.06. 22:30 20.5° C wolkenlos
Mi, 19.06. 22:20 20.5° C wolkenlos
Mi, 19.06. 22:10 20.5° C wolkenlos
Mi, 19.06. 22:00 20.5° C fast wolkenlos
Mi, 19.06. 21:50 20.5° C fast wolkenlos
Mi, 19.06. 21:40 20.6° C leicht bewölkt
Mi, 19.06. 21:30 20.7° C fast wolkenlos
Mi, 19.06. 21:00 20.7° C wolkenlos
Mi, 19.06. 20:30 20.9° C fast wolkenlos
Mi, 19.06. 20:00 21.1° C leicht bewölkt
Mi, 19.06. 19:30 21.4° C wolkenlos
Ortszeit Relative Feuchte Sichtweite
Mi, 19.06. 20:00 79% 17 km
Mi, 19.06. 14:00 78% 8 km
Mi, 19.06. 8:00 79% 14 km
Mi, 19.06. 2:00 74% 40 km
Di, 18.06. 20:00 75% 19 km
Di, 18.06. 14:00 74% 14 km
Di, 18.06. 8:00 74% 18 km
Di, 18.06. 2:00 78% 55 km
Ortszeit Relative Feuchte Sichtweite
Mi, 19.06. 22:30 86% 19 km
Mi, 19.06. 22:20 86% -
Mi, 19.06. 22:10 85% -
Mi, 19.06. 22:00 84% 22 km
Mi, 19.06. 21:50 84% -
Mi, 19.06. 21:40 82% -
Mi, 19.06. 21:30 81% 22 km
Mi, 19.06. 21:00 81% 27 km
Mi, 19.06. 20:30 80% 17 km
Mi, 19.06. 20:00 79% 17 km
Mi, 19.06. 19:30 78% 16 km
Ortszeit Niederschlagsmenge Niederschlagsart
Mi, 19.06. 20:00 0.0 l/m2 in 12 Std. -
Mi, 19.06. 14:00 0.0 l/m2 in 6 Std. -
Mi, 19.06. 8:00 0.0 l/m2 in 12 Std. -
Mi, 19.06. 2:00 0.0 l/m2 in 6 Std. -
Di, 18.06. 20:00 0.0 l/m2 in 12 Std. -
Di, 18.06. 14:00 0.0 l/m2 in 6 Std. -
Di, 18.06. 8:00 0.0 l/m2 in 12 Std. -
Di, 18.06. 2:00 0.0 l/m2 in 6 Std. -
Ortszeit Niederschlagsmenge Niederschlagsart
Mi, 19.06. 22:30 0.0 l/m2 in 1 Std. -
Mi, 19.06. 22:20 keine Meldung -
Mi, 19.06. 22:10 keine Meldung -
Mi, 19.06. 22:00 0.0 l/m2 in 1 Std. -
Mi, 19.06. 21:50 keine Meldung -
Mi, 19.06. 21:40 keine Meldung -
Mi, 19.06. 21:30 0.0 l/m2 in 1 Std. -
Mi, 19.06. 21:00 0.0 l/m2 in 1 Std. -
Mi, 19.06. 20:30 0.0 l/m2 in 1 Std. -
Mi, 19.06. 20:00 0.0 l/m2 in 1 Std. -
Mi, 19.06. 19:30 0.0 l/m2 in 1 Std. -
Ortszeit Stärke Spitze Richtung
km/h Bft. km/h Grad Sektor
Mi, 19.06. 20:00 20 4 30 90° O
Mi, 19.06. 14:00 17 3 24 90° O
Mi, 19.06. 8:00 11 2 29 130° SO
Mi, 19.06. 2:00 17 3 33 140° SO
Di, 18.06. 20:00 22 4 31 100° O
Di, 18.06. 14:00 13 3 26 100° O
Di, 18.06. 8:00 15 3 26 110° O
Di, 18.06. 2:00 11 2 18 120° SO
Ortszeit Stärke Spitze Richtung
km/h Bft. km/h Grad Sektor
Mi, 19.06. 22:30 15 3 24 100° O
Mi, 19.06. 22:20 15 3 - 100° O
Mi, 19.06. 22:10 17 3 - 100° O
Mi, 19.06. 22:00 17 3 28 90° O
Mi, 19.06. 21:50 17 3 - 90° O
Mi, 19.06. 21:40 18 3 - 100° O
Mi, 19.06. 21:30 18 3 29 100° O
Mi, 19.06. 21:00 20 4 31 100° O
Mi, 19.06. 20:30 22 4 31 90° O
Mi, 19.06. 20:00 20 4 30 90° O
Mi, 19.06. 19:30 22 4 29 90° O
Ortszeit Untergrenze Bedeckung Gattung
total tief tief mittel hoch
Mi, 19.06. 20:00 8700 m 5/8 0/8 - - -
Mi, 19.06. 14:00 7800 m 8/8 0/8 - - -
Mi, 19.06. 8:00 9000 m 3/8 0/8 - - -
Mi, 19.06. 2:00 10500 m 5/8 0/8 - - -
Di, 18.06. 20:00 9000 m 5/8 0/8 - - -
Di, 18.06. 14:00 9000 m 2/8 0/8 - - -
Di, 18.06. 8:00 - 0/8 0/8 - - -
Di, 18.06. 2:00 - 0/8 0/8 - - -
Ortszeit Bedeckungsgrad in Achtel und Wolkenuntergrenze
Mi, 19.06. 22:30 keine Wolken
Mi, 19.06. 22:20 keine Wolken
Mi, 19.06. 22:10 keine Wolken
Mi, 19.06. 22:00 2(9000m)
Mi, 19.06. 21:50 2(9000m)
Mi, 19.06. 21:40 4(9000m)
Mi, 19.06. 21:30 2(9000m)
Mi, 19.06. 21:00 keine Wolken
Mi, 19.06. 20:30 1(9000m)
Mi, 19.06. 20:00 3(8700m) 5(9000m)
Mi, 19.06. 19:30 keine Wolken
Ortszeit Luftdruck NN (hPa) Tendenz (hPa in 3 Std.)
Mi, 19.06. 20:00 1008 - 1,2
Mi, 19.06. 14:00 1011 - 1,2
Mi, 19.06. 8:00 1012 - 0,6
Mi, 19.06. 2:00 1014 - 0,8
Di, 18.06. 20:00 1015 - 1,3
Di, 18.06. 14:00 1018 - 1,1
Di, 18.06. 8:00 1020 - 0,6
Di, 18.06. 2:00 1021 0,0
Ortszeit Luftdruck NN (hPa) Tendenz (hPa in 3 Std.)
Mi, 19.06. 22:30 1007 - 0,5
Mi, 19.06. 22:20 1007 keine Meldung
Mi, 19.06. 22:10 1007 keine Meldung
Mi, 19.06. 22:00 1007 - 0,3
Mi, 19.06. 21:50 1007 keine Meldung
Mi, 19.06. 21:40 1007 keine Meldung
Mi, 19.06. 21:30 1007 - 0,4
Mi, 19.06. 21:00 1007 - 0,9
Mi, 19.06. 20:30 1007 - 1,2
Mi, 19.06. 20:00 1008 - 1,2
Mi, 19.06. 19:30 1008 - 1,3
Ortszeit Schneehöhe (cm)
Mi, 19.06. 20:00 -
Mi, 19.06. 14:00 -
Mi, 19.06. 8:00 -
Mi, 19.06. 2:00 -
Di, 18.06. 20:00 -
Di, 18.06. 14:00 -
Di, 18.06. 8:00 -
Di, 18.06. 2:00 -
Ortszeit Schneehöhe (cm)
Mi, 19.06. 22:30 -
Mi, 19.06. 22:20 -
Mi, 19.06. 22:10 -
Mi, 19.06. 22:00 -
Mi, 19.06. 21:50 -
Mi, 19.06. 21:40 -
Mi, 19.06. 21:30 -
Mi, 19.06. 21:00 -
Mi, 19.06. 20:30 -
Mi, 19.06. 20:00 -
Mi, 19.06. 19:30 -
Link zu dieser Seite / Seite empfehlen

Das Wetter in ...